createdAt,value
2018-07-21T08:30:31.668Z,23.40
2018-07-21T08:33:00.914Z,23.50
2018-07-21T08:35:29.212Z,23.60
2018-07-21T08:38:00.665Z,23.80
2018-07-21T08:40:28.957Z,23.90
2018-07-21T08:42:58.170Z,24.00
2018-07-21T08:45:26.472Z,24.00
2018-07-21T08:47:54.733Z,24.10
2018-07-21T08:50:22.993Z,24.30
2018-07-21T08:52:51.282Z,24.40
2018-07-21T08:55:18.774Z,24.40
2018-07-21T08:57:47.060Z,24.60
2018-07-21T09:00:16.339Z,24.60
2018-07-21T09:02:44.605Z,24.70
2018-07-21T09:05:12.909Z,24.80
2018-07-21T09:07:41.182Z,24.90
2018-07-21T09:10:09.481Z,25.20
2018-07-21T09:12:37.746Z,25.30
2018-07-21T09:15:06.019Z,25.40
2018-07-21T09:17:34.300Z,25.40
2018-07-21T09:20:02.577Z,25.70
2018-07-21T09:22:30.888Z,25.80
2018-07-21T09:24:59.199Z,25.80
2018-07-21T09:27:27.465Z,25.90
2018-07-21T09:29:55.721Z,25.90
2018-07-21T09:32:23.244Z,25.90
2018-07-21T09:34:52.450Z,26.20
2018-07-21T09:37:20.732Z,26.30
2018-07-21T09:39:48.453Z,26.30
2018-07-21T09:42:16.748Z,26.50
2018-07-21T09:44:45.001Z,26.50
2018-07-21T09:47:13.316Z,26.70
2018-07-21T09:49:41.570Z,26.90
2018-07-21T09:52:09.863Z,26.90
2018-07-21T09:54:39.067Z,27.00
2018-07-21T09:57:07.365Z,27.10
2018-07-21T09:59:37.590Z,27.30
2018-07-21T10:02:05.898Z,27.30
2018-07-21T10:04:33.401Z,27.30
2018-07-21T10:07:01.662Z,27.50
2018-07-21T10:09:29.944Z,27.50
2018-07-21T10:11:58.208Z,27.50
2018-07-21T10:14:27.466Z,27.70
2018-07-21T10:16:55.729Z,27.60
2018-07-21T10:19:24.964Z,27.60
2018-07-21T10:21:53.277Z,27.60
2018-07-21T10:24:22.449Z,27.80
2018-07-21T10:27:07.573Z,27.80
2018-07-21T10:29:35.856Z,27.90
2018-07-21T10:32:04.121Z,28.00
2018-07-21T10:34:34.381Z,28.00
2018-07-21T10:37:02.661Z,28.20
2018-07-21T10:39:31.960Z,28.10
2018-07-21T10:42:00.245Z,28.20
2018-07-21T10:44:28.549Z,28.20
2018-07-21T10:46:56.814Z,28.40
2018-07-21T10:49:28.685Z,28.40
2018-07-21T10:51:56.961Z,28.50
2018-07-21T10:54:25.249Z,28.70
2018-07-21T10:56:53.505Z,28.70
2018-07-21T10:59:22.800Z,28.80
2018-07-21T11:01:51.083Z,28.80
2018-07-21T11:04:19.345Z,28.80
2018-07-21T11:06:47.633Z,28.80
2018-07-21T11:09:15.905Z,29.00
2018-07-21T11:11:44.194Z,28.90
2018-07-21T11:14:12.454Z,29.10
2018-07-21T11:16:40.746Z,29.10
2018-07-21T11:19:09.053Z,29.20
2018-07-21T11:21:37.353Z,29.20
2018-07-21T11:24:05.608Z,29.10
2018-07-21T11:26:33.865Z,29.20
2018-07-21T11:29:02.161Z,29.30
2018-07-21T11:31:30.426Z,29.40
2018-07-21T11:33:58.913Z,29.40
2018-07-21T11:36:27.187Z,29.50
2018-07-21T11:38:55.477Z,29.50
2018-07-21T11:41:23.728Z,29.40
2018-07-21T11:43:51.259Z,29.40
2018-07-21T11:46:19.525Z,29.30
2018-07-21T11:48:47.070Z,29.30
2018-07-21T11:51:15.333Z,29.50
2018-07-21T11:53:43.629Z,29.70
2018-07-21T11:56:11.898Z,29.90
2018-07-21T11:58:40.206Z,30.20
2018-07-21T12:01:08.464Z,30.00
2018-07-21T12:03:36.768Z,30.00
2018-07-21T12:06:05.026Z,30.00
2018-07-21T12:08:33.291Z,30.00
2018-07-21T12:11:01.573Z,30.20
2018-07-21T12:13:29.871Z,30.20
2018-07-21T12:15:57.373Z,30.20
2018-07-21T12:18:25.639Z,30.40
2018-07-21T12:20:53.912Z,30.60
2018-07-21T12:23:22.170Z,30.50
2018-07-21T12:25:50.463Z,30.50
2018-07-21T12:28:18.725Z,30.60
2018-07-21T12:30:47.074Z,30.60
2018-07-21T12:33:15.344Z,30.70
2018-07-21T12:35:43.632Z,30.60
2018-07-21T12:38:11.897Z,30.60
2018-07-21T12:40:40.190Z,30.70
2018-07-21T12:43:08.477Z,30.70
2018-07-21T12:45:36.765Z,30.90
2018-07-21T12:48:05.053Z,31.00
2018-07-21T12:50:33.381Z,30.80
2018-07-21T12:53:01.676Z,30.90
2018-07-21T12:55:29.929Z,31.00
2018-07-21T12:57:58.189Z,31.10
2018-07-21T13:00:26.484Z,30.90
2018-07-21T13:05:48.048Z,30.80
2018-07-21T13:08:16.349Z,30.40
2018-07-21T13:10:44.637Z,29.90
2018-07-21T13:13:12.938Z,30.00
2018-07-21T13:15:41.202Z,29.80
2018-07-21T13:18:12.515Z,29.80
2018-07-21T13:20:41.750Z,29.70
2018-07-21T13:23:10.041Z,29.60
2018-07-21T13:25:38.306Z,29.90
2018-07-21T13:28:19.934Z,29.80
2018-07-21T13:30:48.218Z,29.80
2018-07-21T13:33:16.650Z,29.70
2018-07-21T13:35:45.817Z,29.70
2018-07-21T13:38:14.102Z,29.70
2018-07-21T13:40:43.321Z,29.60
2018-07-21T13:43:11.620Z,29.70
2018-07-21T13:45:40.823Z,29.90
2018-07-21T13:51:01.673Z,30.00
2018-07-21T13:53:29.934Z,30.00
2018-07-21T13:55:58.226Z,29.90
2018-07-21T13:58:26.493Z,30.00
2018-07-21T14:00:54.788Z,30.10
2018-07-21T14:03:23.045Z,30.40
2018-07-21T14:05:52.356Z,30.50
2018-07-21T14:08:19.861Z,30.50
2018-07-21T14:10:48.151Z,30.70
2018-07-21T14:13:16.417Z,30.60
2018-07-21T14:15:44.803Z,30.40
2018-07-21T14:18:13.081Z,30.30
2018-07-21T14:20:41.345Z,30.10
2018-07-21T14:23:09.641Z,29.90
2018-07-21T14:25:37.134Z,29.90
2018-07-21T14:28:05.417Z,29.40
2018-07-21T14:30:33.692Z,29.60
2018-07-21T14:33:01.982Z,29.50
2018-07-21T14:35:32.269Z,29.40
2018-07-21T14:38:00.532Z,29.40
2018-07-21T14:40:28.830Z,29.30
2018-07-21T14:42:57.090Z,29.10
2018-07-21T14:45:25.413Z,29.20
2018-07-21T14:47:53.702Z,29.00
2018-07-21T14:50:21.996Z,28.90
2018-07-21T14:52:50.255Z,29.20
2018-07-21T14:55:18.517Z,29.50
2018-07-21T14:57:46.810Z,29.70
2018-07-21T15:00:16.018Z,29.80
2018-07-21T15:02:44.307Z,29.90
2018-07-21T15:05:12.561Z,29.70
2018-07-21T15:07:40.877Z,29.60
2018-07-21T15:10:09.139Z,29.40
2018-07-21T15:12:37.427Z,29.30
2018-07-21T15:15:05.682Z,29.10
2018-07-21T15:17:40.310Z,29.40
2018-07-21T15:20:08.588Z,29.60
2018-07-21T15:22:36.881Z,29.70
2018-07-21T15:25:06.073Z,29.90
2018-07-21T15:27:34.359Z,30.00
2018-07-21T15:30:02.614Z,30.30
2018-07-21T15:32:43.401Z,30.70
2018-07-21T15:35:11.662Z,30.60
2018-07-21T15:37:39.964Z,30.70
2018-07-21T15:40:08.227Z,30.60
2018-07-21T15:45:30.413Z,30.70
2018-07-21T15:48:04.457Z,30.60
2018-07-21T15:50:36.429Z,30.50
2018-07-21T15:53:04.717Z,30.60
2018-07-21T15:55:34.918Z,30.60
2018-07-21T16:00:56.389Z,30.50
2018-07-21T16:03:29.725Z,30.10
2018-07-21T16:05:57.985Z,30.10
2018-07-21T16:08:26.260Z,30.10
2018-07-21T16:10:57.464Z,30.10
2018-07-21T16:13:27.655Z,30.20
2018-07-21T16:15:55.954Z,30.20
2018-07-21T16:18:27.113Z,30.20
2018-07-21T16:20:55.408Z,30.10
2018-07-21T16:26:18.521Z,29.90
2018-07-21T16:28:46.777Z,29.90
2018-07-21T16:31:15.061Z,29.90
2018-07-21T16:33:43.312Z,29.80
2018-07-21T16:36:12.610Z,29.60
2018-07-21T16:38:40.868Z,29.40
2018-07-21T16:41:10.105Z,29.30
2018-07-21T16:43:38.368Z,29.10
2018-07-21T16:46:13.735Z,29.00
2018-07-21T16:48:41.988Z,28.70
2018-07-21T16:51:10.322Z,28.70
2018-07-21T16:53:38.616Z,28.80
2018-07-21T16:56:06.916Z,28.70
2018-07-21T16:58:35.173Z,28.50
2018-07-21T17:01:03.447Z,28.60
2018-07-21T17:03:31.745Z,28.50
2018-07-21T17:06:00.005Z,28.40
2018-07-21T17:08:28.290Z,28.50
2018-07-21T17:10:57.534Z,28.60
2018-07-21T17:13:25.827Z,28.80
2018-07-21T17:15:53.325Z,28.80
2018-07-21T17:21:15.271Z,28.60
2018-07-21T17:23:43.620Z,28.60
2018-07-21T17:26:11.854Z,28.70
2018-07-21T17:28:42.930Z,28.70
2018-07-21T17:31:11.189Z,28.60
2018-07-21T17:33:40.397Z,28.60
2018-07-21T17:36:08.688Z,28.60
2018-07-21T17:38:36.959Z,28.50
2018-07-21T17:41:05.258Z,28.50
2018-07-21T17:46:26.916Z,28.40
2018-07-21T17:48:55.220Z,28.20
2018-07-21T17:51:23.489Z,28.10
2018-07-21T17:53:51.818Z,28.10
2018-07-21T17:56:20.082Z,28.10
2018-07-21T17:58:48.477Z,28.00
2018-07-21T18:01:17.568Z,28.00
2018-07-21T18:03:45.865Z,28.10
2018-07-21T18:06:14.120Z,28.00
2018-07-21T18:08:42.421Z,28.00
2018-07-21T18:16:57.953Z,28.00
2018-07-21T18:19:26.268Z,27.90
2018-07-21T18:21:54.533Z,27.90
2018-07-21T18:24:22.853Z,27.90
2018-07-21T18:26:51.141Z,27.80
2018-07-21T18:29:22.870Z,27.70
2018-07-21T18:31:51.169Z,27.70
2018-07-21T18:34:18.662Z,27.70
2018-07-21T18:36:46.965Z,27.80
2018-07-21T18:39:15.278Z,27.80
2018-07-21T18:44:36.626Z,27.90
2018-07-21T18:47:04.892Z,27.70
2018-07-21T18:49:33.216Z,27.60
2018-07-21T18:54:54.346Z,27.60
2018-07-21T18:57:22.607Z,27.60
2018-07-21T18:59:50.941Z,27.60
2018-07-21T19:02:19.169Z,27.50
2018-07-21T19:04:47.485Z,27.50
2018-07-21T19:07:15.744Z,27.50
2018-07-21T19:09:44.010Z,27.40
2018-07-21T19:12:12.326Z,27.30
2018-07-21T19:14:40.616Z,27.40
2018-07-21T19:17:08.142Z,27.30
2018-07-21T19:22:29.784Z,27.30
2018-07-21T19:25:10.938Z,27.10
2018-07-21T19:27:39.236Z,26.90
2018-07-21T19:33:00.173Z,26.80
2018-07-21T19:35:28.432Z,26.70
2018-07-21T19:37:56.729Z,26.60
2018-07-21T19:43:18.429Z,26.50
2018-07-21T19:45:46.754Z,26.30
2018-07-21T19:48:14.979Z,26.10
2018-07-21T19:50:46.808Z,26.10
2018-07-21T19:53:15.130Z,26.30
2018-07-21T19:55:49.678Z,26.10
2018-07-21T19:58:17.990Z,26.00
2018-07-21T20:00:52.773Z,25.90
2018-07-21T20:03:21.065Z,25.90
2018-07-21T20:05:49.331Z,25.80
2018-07-21T20:08:17.613Z,25.90
2018-07-21T20:10:45.918Z,25.70
2018-07-21T20:16:07.503Z,25.60
2018-07-21T20:21:29.244Z,25.80
2018-07-21T20:23:56.617Z,25.70
2018-07-21T20:26:24.899Z,25.90
2018-07-21T20:28:53.182Z,25.90
2018-07-21T20:31:21.480Z,25.70
2018-07-21T20:33:49.741Z,25.50
2018-07-21T20:36:18.009Z,25.20
2018-07-21T20:38:46.303Z,25.10
2018-07-21T20:41:14.560Z,25.10
2018-07-21T20:43:42.879Z,25.10
2018-07-21T20:46:11.621Z,25.10
2018-07-21T20:48:39.882Z,24.90
2018-07-21T20:51:08.174Z,24.90
2018-07-21T20:53:36.433Z,24.90
2018-07-21T20:56:04.744Z,24.80
2018-07-21T20:58:33.037Z,24.80
2018-07-21T21:01:01.330Z,24.70
2018-07-21T21:03:29.596Z,24.80
2018-07-21T21:05:57.898Z,24.80
2018-07-21T21:08:26.168Z,24.60
2018-07-21T21:10:54.430Z,24.60
2018-07-21T21:13:22.721Z,24.50
2018-07-21T21:15:51.004Z,24.40
2018-07-21T21:18:19.301Z,24.50
2018-07-21T21:20:47.589Z,24.40
2018-07-21T21:23:15.860Z,24.40
2018-07-21T21:25:44.158Z,24.40
2018-07-21T21:28:12.449Z,24.40
2018-07-21T21:30:40.710Z,24.20
2018-07-21T21:33:08.233Z,24.20
2018-07-21T21:35:36.523Z,24.10
2018-07-21T21:38:04.021Z,24.10
2018-07-21T21:40:32.313Z,24.00
2018-07-21T21:43:00.574Z,23.90
2018-07-21T21:45:28.878Z,23.90
2018-07-21T21:47:57.152Z,23.80
2018-07-21T21:50:26.393Z,23.70
2018-07-21T21:52:54.657Z,23.60
2018-07-21T21:55:22.944Z,23.60
2018-07-21T21:57:51.205Z,23.60
2018-07-21T22:00:19.556Z,23.60
2018-07-21T22:02:47.821Z,23.50
2018-07-21T22:05:16.093Z,23.50
2018-07-21T22:07:44.388Z,23.50
2018-07-21T22:10:12.704Z,23.50
2018-07-21T22:12:40.970Z,23.30
2018-07-21T22:15:09.247Z,23.30
2018-07-21T22:17:37.542Z,23.20
2018-07-21T22:20:05.810Z,23.20
2018-07-21T22:22:34.101Z,23.00
2018-07-21T22:25:02.409Z,23.00
2018-07-21T22:27:30.682Z,23.10
2018-07-21T22:29:58.969Z,22.90
2018-07-21T22:32:30.773Z,22.90
2018-07-21T22:34:59.067Z,23.00
2018-07-21T22:37:27.325Z,23.10
2018-07-21T22:39:55.733Z,23.00
2018-07-21T22:42:23.999Z,23.00
2018-07-21T22:44:52.291Z,23.10
2018-07-21T22:47:20.553Z,22.90
2018-07-21T22:49:48.850Z,22.80
2018-07-21T22:52:17.134Z,22.70
2018-07-21T22:54:45.437Z,22.60
2018-07-21T22:57:13.719Z,22.70
2018-07-21T22:59:41.988Z,22.70
2018-07-21T23:02:10.282Z,22.70
2018-07-21T23:04:42.086Z,22.60
2018-07-21T23:07:10.382Z,22.30
2018-07-21T23:09:38.645Z,22.30
2018-07-21T23:12:06.929Z,22.40
2018-07-21T23:14:38.316Z,22.50
2018-07-21T23:17:06.627Z,22.30
2018-07-21T23:19:34.922Z,22.20
2018-07-21T23:22:03.190Z,22.20
2018-07-21T23:24:31.468Z,22.20
2018-07-21T23:26:59.733Z,22.20
2018-07-21T23:29:28.033Z,22.10
2018-07-21T23:31:56.296Z,22.10
2018-07-21T23:34:24.588Z,22.00
2018-07-21T23:36:52.870Z,21.90
2018-07-21T23:39:21.188Z,21.80
2018-07-21T23:41:49.461Z,21.80
2018-07-21T23:44:17.733Z,21.60
2018-07-21T23:47:05.425Z,21.40
2018-07-21T23:49:33.737Z,21.40
2018-07-21T23:52:02.024Z,21.30
2018-07-21T23:54:30.298Z,21.30
2018-07-21T23:56:58.587Z,21.20
2018-07-21T23:59:26.853Z,21.30
